createdAt,value
2022-10-26T00:02:52.814Z,101666.72
2022-10-26T00:05:56.608Z,101664.09
2022-10-26T00:09:00.332Z,101663.25
2022-10-26T00:12:04.526Z,101664.97
2022-10-26T00:15:18.607Z,101661.56
2022-10-26T00:18:23.908Z,101660.81
2022-10-26T00:21:27.543Z,101666.09
2022-10-26T00:24:31.254Z,101668.78
2022-10-26T00:27:35.494Z,101665.34
2022-10-26T00:30:41.474Z,101666.13
2022-10-26T00:33:46.597Z,101666.16
2022-10-26T00:36:50.153Z,101669.59
2022-10-26T00:39:53.683Z,101676.59
2022-10-26T00:42:57.871Z,101672.25
2022-10-26T00:46:04.270Z,101676.56
2022-10-26T00:49:16.815Z,101680.06
2022-10-26T00:52:22.746Z,101678.25
2022-10-26T00:55:33.682Z,101673.03
2022-10-26T00:58:38.758Z,101676.56
2022-10-26T01:01:47.769Z,101675.72
2022-10-26T01:04:55.713Z,101667.88
2022-10-26T01:08:00.193Z,101667.88
2022-10-26T01:11:04.976Z,101671.28
2022-10-26T01:14:13.639Z,101667.88
2022-10-26T01:17:40.731Z,101673.88
2022-10-26T01:21:37.269Z,101669.47
2022-10-26T01:24:58.428Z,101662.53
2022-10-26T01:28:09.434Z,101660.06
2022-10-26T01:31:25.678Z,101658.31
2022-10-26T01:34:38.802Z,101665.25
2022-10-26T01:37:50.868Z,101657.28
2022-10-26T01:41:06.204Z,101653.06
2022-10-26T01:44:19.890Z,101655.59
2022-10-26T01:47:27.400Z,101644.25
2022-10-26T01:50:33.370Z,101647.69
2022-10-26T01:53:37.596Z,101636.34
2022-10-26T01:56:43.804Z,101646.00
2022-10-26T02:00:05.823Z,101646.03
2022-10-26T02:03:21.906Z,101643.47
2022-10-26T02:06:40.353Z,101644.25
2022-10-26T02:10:01.024Z,101649.50
2022-10-26T02:13:16.308Z,101644.38
2022-10-26T02:16:27.707Z,101636.53
2022-10-26T02:19:45.768Z,101633.09
2022-10-26T02:22:53.078Z,101627.94
2022-10-26T02:26:01.634Z,101629.63
2022-10-26T02:29:12.978Z,101619.22
2022-10-26T02:32:18.454Z,101617.50
2022-10-26T02:35:30.758Z,101620.94
2022-10-26T02:38:36.885Z,101620.09
2022-10-26T02:41:44.739Z,101614.00
2022-10-26T02:44:54.535Z,101611.44
2022-10-26T02:47:59.180Z,101609.69
2022-10-26T02:51:12.984Z,101609.66
2022-10-26T02:54:25.603Z,101601.00
2022-10-26T02:57:39.703Z,101602.75
2022-10-26T03:00:45.996Z,101598.41
2022-10-26T03:03:50.055Z,101597.47
2022-10-26T03:06:56.275Z,101592.25
2022-10-26T03:09:59.978Z,101592.25
2022-10-26T03:13:03.527Z,101590.50
2022-10-26T03:16:07.672Z,101593.09
2022-10-26T03:19:11.370Z,101587.84
2022-10-26T03:22:16.299Z,101582.59
2022-10-26T03:25:19.884Z,101580.84
2022-10-26T03:28:23.414Z,101580.81
2022-10-26T03:31:27.139Z,101579.06
2022-10-26T03:34:30.715Z,101566.78
2022-10-26T03:37:35.634Z,101576.44
2022-10-26T03:40:39.207Z,101583.41
2022-10-26T03:43:42.875Z,101579.06
2022-10-26T03:46:46.464Z,101580.81
2022-10-26T03:49:50.008Z,101576.47
2022-10-26T03:52:54.975Z,101573.84
2022-10-26T03:55:58.579Z,101585.22
2022-10-26T03:59:02.228Z,101586.94
2022-10-26T04:02:05.823Z,101581.72
2022-10-26T04:05:11.104Z,101579.13
2022-10-26T04:08:16.580Z,101582.59
2022-10-26T04:11:20.261Z,101581.69
2022-10-26T04:14:24.139Z,101585.13
2022-10-26T04:17:27.735Z,101593.78
2022-10-26T04:20:33.972Z,101592.97
2022-10-26T04:23:38.917Z,101598.16
2022-10-26T04:26:42.498Z,101593.09
2022-10-26T04:29:46.029Z,101590.50
2022-10-26T04:32:50.579Z,101583.53
2022-10-26T04:35:54.418Z,101597.53
2022-10-26T04:38:59.407Z,101593.19
2022-10-26T04:42:02.925Z,101592.31
2022-10-26T04:45:07.602Z,101592.31
2022-10-26T04:48:14.627Z,101594.09
2022-10-26T04:51:18.744Z,101597.63
2022-10-26T04:54:23.772Z,101596.75
2022-10-26T04:57:27.434Z,101586.41
2022-10-26T05:00:33.196Z,101595.16
2022-10-26T05:03:36.802Z,101590.88
2022-10-26T05:06:40.368Z,101587.44
2022-10-26T05:09:45.392Z,101581.28
2022-10-26T05:12:53.268Z,101588.19
2022-10-26T05:15:56.839Z,101577.78
2022-10-26T05:19:00.377Z,101586.44
2022-10-26T05:22:04.134Z,101581.28
2022-10-26T05:25:10.284Z,101573.44
2022-10-26T05:28:15.977Z,101578.63
2022-10-26T05:31:19.819Z,101576.09
2022-10-26T05:34:23.440Z,101569.16
2022-10-26T05:37:30.259Z,101578.75
2022-10-26T05:40:35.323Z,101569.09
2022-10-26T05:43:38.985Z,101569.13
2022-10-26T05:46:42.693Z,101576.09
2022-10-26T05:49:46.387Z,101576.91
2022-10-26T05:52:51.263Z,101579.50
2022-10-26T05:55:57.711Z,101576.91
2022-10-26T05:59:02.527Z,101575.09
2022-10-26T06:02:20.327Z,101579.41
2022-10-26T06:05:30.397Z,101578.59
2022-10-26T06:08:34.515Z,101589.91
2022-10-26T06:11:40.786Z,101589.03
2022-10-26T06:14:45.207Z,101589.03
2022-10-26T06:18:04.481Z,101590.84
2022-10-26T06:21:32.005Z,101597.81
2022-10-26T06:24:47.647Z,101595.22
2022-10-26T06:28:06.167Z,101587.34
2022-10-26T06:31:09.947Z,101608.22
2022-10-26T06:34:24.185Z,101597.84
2022-10-26T06:37:30.630Z,101597.91
2022-10-26T06:40:37.810Z,101597.00
2022-10-26T06:43:43.878Z,101595.19
2022-10-26T06:46:54.293Z,101593.50
2022-10-26T06:50:08.516Z,101603.91
2022-10-26T06:53:27.166Z,101611.66
2022-10-26T06:56:32.234Z,101612.63
2022-10-26T06:59:44.223Z,101615.22
2022-10-26T07:02:49.220Z,101622.13
2022-10-26T07:05:53.807Z,101627.34
2022-10-26T07:08:57.539Z,101623.75
2022-10-26T07:12:01.144Z,101629.03
2022-10-26T07:18:13.000Z,101628.09
2022-10-26T07:21:16.608Z,101635.75
2022-10-26T07:24:20.121Z,101627.91
2022-10-26T07:27:24.931Z,101625.16
2022-10-26T07:30:31.382Z,101623.38
2022-10-26T07:33:38.048Z,101627.69
2022-10-26T07:36:45.048Z,101631.97
2022-10-26T07:39:48.866Z,101633.63
2022-10-26T07:42:52.863Z,101628.25
2022-10-26T07:45:58.523Z,101627.25
2022-10-26T07:49:02.141Z,101624.56
2022-10-26T07:52:06.419Z,101623.53
2022-10-26T07:55:11.071Z,101623.38
2022-10-26T07:58:14.682Z,101613.75
2022-10-26T08:01:19.823Z,101613.63
2022-10-26T08:04:23.549Z,101609.19
2022-10-26T08:07:28.794Z,101607.25
2022-10-26T08:10:32.437Z,101611.44
2022-10-26T08:13:36.131Z,101608.53
2022-10-26T08:16:41.144Z,101610.34
2022-10-26T08:19:44.735Z,101618.84
2022-10-26T08:22:48.701Z,101607.38
2022-10-26T08:25:52.461Z,101612.47
2022-10-26T08:28:56.146Z,101607.81
2022-10-26T08:32:01.139Z,101603.28
2022-10-26T08:35:05.167Z,101596.97
2022-10-26T08:38:08.763Z,101595.75
2022-10-26T08:41:14.747Z,101599.81
2022-10-26T08:44:28.850Z,101607.25
2022-10-26T08:47:45.007Z,101606.16
2022-10-26T08:50:54.714Z,101597.19
2022-10-26T08:54:05.017Z,101597.78
2022-10-26T08:57:20.897Z,101592.97
2022-10-26T09:00:27.939Z,101594.53
2022-10-26T09:03:33.786Z,101579.56
2022-10-26T09:06:54.936Z,101582.19
2022-10-26T09:10:17.582Z,101587.09
2022-10-26T09:13:34.976Z,101591.13
2022-10-26T09:16:51.610Z,101595.56
2022-10-26T09:20:17.096Z,101584.34
2022-10-26T09:23:38.220Z,101583.91
2022-10-26T09:26:55.685Z,101587.16
2022-10-26T09:30:05.885Z,101582.13
2022-10-26T09:33:18.062Z,101580.16
2022-10-26T09:36:24.335Z,101576.22
2022-10-26T09:39:41.370Z,101574.13
2022-10-26T09:42:51.860Z,101571.84
2022-10-26T09:45:55.871Z,101567.66
2022-10-26T09:49:05.786Z,101564.66
2022-10-26T09:55:15.746Z,101561.00
2022-10-26T09:58:26.474Z,101560.63
2022-10-26T10:01:35.622Z,101552.41
2022-10-26T10:04:48.992Z,101545.66
2022-10-26T10:07:54.096Z,101545.44
2022-10-26T10:11:04.956Z,101549.47
2022-10-26T10:14:15.542Z,101553.03
2022-10-26T10:17:24.573Z,101555.38
2022-10-26T10:20:34.221Z,101553.91
2022-10-26T10:23:52.044Z,101561.19
2022-10-26T10:27:05.097Z,101558.25
2022-10-26T10:30:24.438Z,101559.81
2022-10-26T10:33:37.753Z,101563.94
2022-10-26T10:36:42.070Z,101547.75
2022-10-26T10:39:48.696Z,101551.19
2022-10-26T10:42:56.896Z,101548.66
2022-10-26T10:46:01.439Z,101555.25
2022-10-26T10:49:17.173Z,101574.25
2022-10-26T10:52:28.053Z,101572.66
2022-10-26T10:55:33.426Z,101561.38
2022-10-26T10:58:51.005Z,101568.72
2022-10-26T11:02:22.993Z,101570.72
2022-10-26T11:05:51.756Z,101574.72
2022-10-26T11:09:03.731Z,101584.94
2022-10-26T11:12:16.491Z,101593.75
2022-10-26T11:15:24.771Z,101597.28
2022-10-26T11:18:36.300Z,101591.19
2022-10-26T11:21:39.819Z,101597.03
2022-10-26T11:24:51.062Z,101603.53
2022-10-26T11:28:03.165Z,101603.06
2022-10-26T11:31:18.232Z,101598.72
2022-10-26T11:34:30.897Z,101604.13
2022-10-26T11:37:45.539Z,101591.31
2022-10-26T11:40:58.646Z,101591.50
2022-10-26T11:44:16.466Z,101586.84
2022-10-26T11:47:27.155Z,101589.16
2022-10-26T11:50:38.762Z,101588.47
2022-10-26T11:53:48.561Z,101580.91
2022-10-26T11:56:57.014Z,101575.97
2022-10-26T12:00:06.599Z,101574.16
2022-10-26T12:03:18.092Z,101567.28
2022-10-26T12:06:28.476Z,101577.72
2022-10-26T12:09:38.160Z,101583.00
2022-10-26T12:12:51.726Z,101596.00
2022-10-26T12:16:08.382Z,101584.13
2022-10-26T12:19:22.214Z,101586.53
2022-10-26T12:22:33.637Z,101593.72
2022-10-26T12:25:37.428Z,101605.03
2022-10-26T12:28:43.016Z,101603.00
2022-10-26T12:31:47.939Z,101603.19
2022-10-26T12:35:35.083Z,101588.50
2022-10-26T12:39:00.197Z,101588.56
2022-10-26T12:42:30.208Z,101584.19
2022-10-26T12:45:34.028Z,101589.66
2022-10-26T12:48:45.304Z,101588.09
2022-10-26T12:51:50.134Z,101589.47
2022-10-26T12:56:02.692Z,101578.25
2022-10-26T12:59:27.043Z,101590.13
2022-10-26T13:02:56.079Z,101584.69
2022-10-26T13:06:38.159Z,101583.66
2022-10-26T13:09:47.475Z,101599.47
2022-10-26T13:12:55.867Z,101604.00
2022-10-26T13:16:01.643Z,101599.75
2022-10-26T13:19:05.327Z,101595.44
2022-10-26T13:22:17.282Z,101594.78
2022-10-26T13:25:27.504Z,101582.91
2022-10-26T13:28:47.626Z,101587.94
2022-10-26T13:31:58.987Z,101583.22
2022-10-26T13:35:04.875Z,101588.84
2022-10-26T13:38:14.007Z,101590.44
2022-10-26T13:41:32.803Z,101588.72
2022-10-26T13:44:45.860Z,101588.41
2022-10-26T13:48:00.001Z,101588.97
2022-10-26T13:51:13.433Z,101590.56
2022-10-26T13:54:28.236Z,101587.56
2022-10-26T13:57:39.257Z,101597.06
2022-10-26T14:01:01.446Z,101601.16
2022-10-26T14:04:18.117Z,101598.03
2022-10-26T14:07:30.941Z,101607.81
2022-10-26T14:10:43.414Z,101609.19
2022-10-26T14:13:49.862Z,101615.34
2022-10-26T14:16:55.439Z,101622.50
2022-10-26T14:19:59.363Z,101611.28
2022-10-26T14:23:02.942Z,101621.88
2022-10-26T14:26:08.057Z,101622.19
2022-10-26T14:29:18.928Z,101634.31
2022-10-26T14:32:27.365Z,101640.97
2022-10-26T14:35:36.107Z,101636.78
2022-10-26T14:38:47.666Z,101648.38
2022-10-26T14:41:55.682Z,101648.50
2022-10-26T14:45:00.339Z,101647.63
2022-10-26T14:48:07.267Z,101644.91
2022-10-26T14:51:17.933Z,101651.09
2022-10-26T14:54:24.943Z,101636.19
2022-10-26T14:57:35.962Z,101639.47
2022-10-26T15:00:40.450Z,101635.00
2022-10-26T15:03:45.252Z,101637.94
2022-10-26T15:06:49.002Z,101646.81
2022-10-26T15:09:53.647Z,101647.41
2022-10-26T15:12:58.790Z,101653.69
2022-10-26T15:16:17.580Z,101649.75
2022-10-26T15:19:24.181Z,101650.53
2022-10-26T15:22:32.239Z,101652.38
2022-10-26T15:25:36.331Z,101665.59
2022-10-26T15:28:43.675Z,101654.38
2022-10-26T15:31:47.347Z,101658.47
2022-10-26T15:35:06.512Z,101669.44
2022-10-26T15:38:13.005Z,101672.47
2022-10-26T15:41:23.210Z,101674.00
2022-10-26T15:44:28.202Z,101676.19
2022-10-26T15:47:35.249Z,101679.75
2022-10-26T15:50:41.250Z,101693.22
2022-10-26T15:53:45.255Z,101694.56
2022-10-26T15:56:49.183Z,101711.81
2022-10-26T15:59:54.109Z,101709.16
2022-10-26T16:02:57.990Z,101718.47
2022-10-26T16:06:03.770Z,101716.97
2022-10-26T16:09:14.172Z,101721.00
2022-10-26T16:12:17.720Z,101719.38
2022-10-26T16:15:39.215Z,101725.16
2022-10-26T16:18:43.681Z,101728.13
2022-10-26T16:21:47.307Z,101732.66
2022-10-26T16:24:50.855Z,101731.59
2022-10-26T16:27:56.448Z,101739.94
2022-10-26T16:31:06.814Z,101744.66
2022-10-26T16:34:10.394Z,101746.69
2022-10-26T16:37:13.951Z,101751.50
2022-10-26T16:40:17.763Z,101761.38
2022-10-26T16:43:21.540Z,101769.47
2022-10-26T16:46:26.703Z,101768.06
2022-10-26T16:49:30.339Z,101768.16
2022-10-26T16:52:36.207Z,101788.50
2022-10-26T16:55:39.958Z,101789.66
2022-10-26T16:58:43.973Z,101795.84
2022-10-26T17:01:48.969Z,101802.31
2022-10-26T17:04:52.880Z,101804.19
2022-10-26T17:07:56.670Z,101816.75
2022-10-26T17:11:05.643Z,101817.72
2022-10-26T17:14:09.387Z,101824.06
2022-10-26T17:17:14.438Z,101827.75
2022-10-26T17:20:18.406Z,101827.09
2022-10-26T17:23:22.095Z,101834.25
2022-10-26T17:26:25.776Z,101846.56
2022-10-26T17:29:29.730Z,101857.19
2022-10-26T17:32:34.728Z,101867.88
2022-10-26T17:35:38.870Z,101861.00
2022-10-26T17:38:44.666Z,101869.97
2022-10-26T17:41:48.451Z,101872.69
2022-10-26T17:44:52.470Z,101866.56
2022-10-26T17:47:57.538Z,101877.25
2022-10-26T17:51:02.301Z,101896.72
2022-10-26T17:54:06.478Z,101896.84
2022-10-26T17:57:10.297Z,101894.38
2022-10-26T18:00:15.546Z,101907.59
2022-10-26T18:03:21.081Z,101905.94
2022-10-26T18:06:25.915Z,101909.44
2022-10-26T18:09:29.703Z,101923.56
2022-10-26T18:12:33.633Z,101936.72
2022-10-26T18:15:37.443Z,101943.72
2022-10-26T18:18:46.455Z,101948.06
2022-10-26T18:21:50.093Z,101937.47
2022-10-26T18:24:53.654Z,101938.38
2022-10-26T18:27:58.327Z,101947.19
2022-10-26T18:31:05.067Z,101955.13
2022-10-26T18:34:12.308Z,101961.28
2022-10-26T18:37:16.899Z,101966.47
2022-10-26T18:40:20.590Z,101972.56
2022-10-26T18:43:24.305Z,101969.16
2022-10-26T18:46:30.579Z,101972.56
2022-10-26T18:49:35.633Z,101977.00
2022-10-26T18:52:39.311Z,101983.25
2022-10-26T18:55:44.108Z,101983.25
2022-10-26T18:58:50.686Z,101982.41
2022-10-26T19:01:54.605Z,101988.66
2022-10-26T19:04:59.807Z,101994.88
2022-10-26T19:08:03.394Z,101991.44
2022-10-26T19:11:09.651Z,101995.06
2022-10-26T19:14:13.884Z,101996.09
2022-10-26T19:17:17.472Z,101990.09
2022-10-26T19:20:22.498Z,101993.63
2022-10-26T19:23:26.439Z,101992.84
2022-10-26T19:26:36.049Z,101999.94
2022-10-26T19:29:42.410Z,102007.81
2022-10-26T19:32:46.004Z,102011.41
2022-10-26T19:35:52.017Z,102015.00
2022-10-26T19:38:55.956Z,102015.97
2022-10-26T19:41:59.708Z,102026.53
2022-10-26T19:45:03.668Z,102023.16
2022-10-26T19:48:08.407Z,102025.84
2022-10-26T19:51:13.776Z,102032.00
2022-10-26T19:54:17.513Z,102028.47
2022-10-26T19:57:21.048Z,102033.84
2022-10-26T20:00:24.868Z,102037.41
2022-10-26T20:03:29.709Z,102037.44
2022-10-26T20:06:35.031Z,102041.81
2022-10-26T20:09:38.611Z,102048.81
2022-10-26T20:12:42.795Z,102058.44
2022-10-26T20:15:46.631Z,102057.63
2022-10-26T20:18:50.258Z,102064.66
2022-10-26T20:21:55.130Z,102064.59
2022-10-26T20:25:00.037Z,102073.38
2022-10-26T20:28:04.735Z,102075.97
2022-10-26T20:31:08.437Z,102075.09
2022-10-26T20:34:12.112Z,102082.00
2022-10-26T20:37:17.959Z,102082.50
2022-10-26T20:40:24.010Z,102080.53
2022-10-26T20:43:29.157Z,102087.41
2022-10-26T20:46:33.642Z,102085.63
2022-10-26T20:49:38.391Z,102084.59
2022-10-26T20:52:56.527Z,102091.59
2022-10-26T20:56:04.595Z,102091.34
2022-10-26T20:59:17.991Z,102093.09
2022-10-26T21:02:22.515Z,102087.81
2022-10-26T21:05:30.223Z,102093.94
2022-10-26T21:08:37.579Z,102102.69
2022-10-26T21:11:41.432Z,102099.19
2022-10-26T21:14:45.050Z,102100.66
2022-10-26T21:17:49.124Z,102109.44
2022-10-26T21:20:52.880Z,102107.75
2022-10-26T21:23:57.965Z,102105.19
2022-10-26T21:27:01.512Z,102110.41
2022-10-26T21:30:06.677Z,102117.28
2022-10-26T21:33:10.171Z,102114.69
2022-10-26T21:36:15.393Z,102120.81
2022-10-26T21:39:20.330Z,102125.19
2022-10-26T21:42:24.305Z,102120.59
2022-10-26T21:45:27.852Z,102131.75
2022-10-26T21:48:33.103Z,102135.16
2022-10-26T21:51:36.888Z,102128.69
2022-10-26T21:54:41.806Z,102139.28
2022-10-26T21:57:45.336Z,102130.53
2022-10-26T22:00:49.128Z,102133.22
2022-10-26T22:03:52.681Z,102137.38
2022-10-26T22:06:59.085Z,102133.00
2022-10-26T22:10:11.685Z,102133.13
2022-10-26T22:13:15.549Z,102141.09
2022-10-26T22:16:22.647Z,102143.66
2022-10-26T22:19:26.199Z,102136.75
2022-10-26T22:22:29.731Z,102138.44
2022-10-26T22:25:34.824Z,102145.34
2022-10-26T22:28:42.682Z,102145.25
2022-10-26T22:31:46.673Z,102144.44
2022-10-26T22:34:53.184Z,102143.75
2022-10-26T22:38:04.009Z,102142.63
2022-10-26T22:41:12.458Z,102150.59
2022-10-26T22:44:16.127Z,102148.78
2022-10-26T22:47:19.704Z,102157.72
2022-10-26T22:50:23.286Z,102159.50
2022-10-26T22:53:27.021Z,102158.66
2022-10-26T22:56:34.892Z,102158.41
2022-10-26T22:59:38.452Z,102160.44
2022-10-26T23:02:42.278Z,102164.03
2022-10-26T23:05:49.355Z,102165.09
2022-10-26T23:08:53.091Z,102163.94
2022-10-26T23:11:58.218Z,102169.28
2022-10-26T23:15:01.838Z,102170.06
2022-10-26T23:18:05.487Z,102170.28
2022-10-26T23:21:12.216Z,102171.25
2022-10-26T23:24:15.779Z,102172.13
2022-10-26T23:27:20.759Z,102175.69
2022-10-26T23:30:24.308Z,102185.31
2022-10-26T23:33:28.054Z,102187.81
2022-10-26T23:36:31.589Z,102187.00
2022-10-26T23:39:35.448Z,102192.19
2022-10-26T23:42:40.390Z,102194.69
2022-10-26T23:45:43.991Z,102186.19
2022-10-26T23:48:47.508Z,102189.59
2022-10-26T23:51:51.095Z,102188.84
2022-10-26T23:54:54.610Z,102195.09
2022-10-26T23:57:59.814Z,102193.34
